createdAt,value
2019-06-26T00:01:58.409Z,4.72
2019-06-26T00:04:35.371Z,3.92
2019-06-26T00:07:12.475Z,4.47
2019-06-26T00:09:49.199Z,4.05
2019-06-26T00:12:26.381Z,3.83
2019-06-26T00:15:03.389Z,3.98
2019-06-26T00:17:40.329Z,4.35
2019-06-26T00:20:18.036Z,4.42
2019-06-26T00:22:55.113Z,4.12
2019-06-26T00:25:31.999Z,4.30
2019-06-26T00:28:08.789Z,3.83
2019-06-26T00:30:46.269Z,4.40
2019-06-26T00:33:23.082Z,4.47
2019-06-26T00:35:59.856Z,3.90
2019-06-26T00:38:39.951Z,3.55
2019-06-26T00:41:14.877Z,4.30
2019-06-26T00:43:51.680Z,4.90
2019-06-26T00:46:28.424Z,4.05
2019-06-26T00:49:04.911Z,3.72
2019-06-26T00:51:41.937Z,3.72
2019-06-26T00:54:18.949Z,3.40
2019-06-26T00:56:55.691Z,3.87
2019-06-26T00:59:32.560Z,3.27
2019-06-26T01:02:09.402Z,3.05
2019-06-26T01:04:48.360Z,2.92
2019-06-26T01:07:26.132Z,3.10
2019-06-26T01:10:03.010Z,3.20
2019-06-26T01:12:40.370Z,3.05
2019-06-26T01:15:17.533Z,3.10
2019-06-26T01:17:54.819Z,2.87
2019-06-26T01:20:31.778Z,2.62
2019-06-26T01:23:08.748Z,2.70
2019-06-26T01:25:45.256Z,3.00
2019-06-26T01:28:22.228Z,2.42
2019-06-26T01:30:59.130Z,3.00
2019-06-26T01:33:36.083Z,2.55
2019-06-26T01:36:13.079Z,3.05
2019-06-26T01:38:49.792Z,3.50
2019-06-26T01:41:26.710Z,3.27
2019-06-26T01:44:14.223Z,2.70
2019-06-26T01:46:41.743Z,2.67
2019-06-26T01:49:18.482Z,2.92
2019-06-26T01:51:55.300Z,2.65
2019-06-26T01:54:32.063Z,2.80
2019-06-26T01:57:08.857Z,2.83
2019-06-26T01:59:45.645Z,2.80
2019-06-26T02:02:22.456Z,2.80
2019-06-26T02:04:59.908Z,2.62
2019-06-26T02:07:36.841Z,2.85
2019-06-26T02:10:15.981Z,3.30
2019-06-26T02:12:53.568Z,2.65
2019-06-26T02:15:30.400Z,2.42
2019-06-26T02:18:08.485Z,2.47
2019-06-26T02:20:45.430Z,2.40
2019-06-26T02:23:22.302Z,2.50
2019-06-26T02:25:59.081Z,2.42
2019-06-26T02:28:35.722Z,2.70
2019-06-26T02:31:13.906Z,2.67
2019-06-26T02:33:50.760Z,2.60
2019-06-26T02:36:27.892Z,2.55
2019-06-26T02:39:04.689Z,2.70
2019-06-26T02:41:41.808Z,2.60
2019-06-26T02:44:19.497Z,2.20
2019-06-26T02:47:13.585Z,2.85
2019-06-26T02:49:34.466Z,2.30
2019-06-26T02:52:11.446Z,2.22
2019-06-26T02:54:48.567Z,2.40
2019-06-26T02:57:25.313Z,2.70
2019-06-26T03:00:02.297Z,2.52
2019-06-26T03:02:39.280Z,2.30
2019-06-26T03:05:16.394Z,2.50
2019-06-26T03:07:53.296Z,2.60
2019-06-26T03:10:30.080Z,2.27
2019-06-26T03:13:06.819Z,2.58
2019-06-26T03:15:43.480Z,2.40
2019-06-26T03:18:20.445Z,2.25
2019-06-26T03:20:58.476Z,2.52
2019-06-26T03:23:35.315Z,2.12
2019-06-26T03:26:12.194Z,2.70
2019-06-26T03:28:48.862Z,2.87
2019-06-26T03:31:25.601Z,2.50
2019-06-26T03:34:02.556Z,2.25
2019-06-26T03:36:39.670Z,2.25
2019-06-26T03:39:16.502Z,2.52
2019-06-26T03:41:53.764Z,2.47
2019-06-26T03:44:30.633Z,2.40
2019-06-26T03:47:07.731Z,2.33
2019-06-26T03:49:44.558Z,2.30
2019-06-26T03:52:21.337Z,2.47
2019-06-26T03:54:58.213Z,2.20
2019-06-26T03:57:35.510Z,2.12
2019-06-26T04:00:13.011Z,2.55
2019-06-26T04:02:49.789Z,2.37
2019-06-26T04:05:26.652Z,1.90
2019-06-26T04:08:03.424Z,2.02
2019-06-26T04:10:43.084Z,1.90
2019-06-26T04:13:18.416Z,1.95
2019-06-26T04:15:55.313Z,1.80
2019-06-26T04:18:32.304Z,2.10
2019-06-26T04:21:08.882Z,1.70
2019-06-26T04:23:45.831Z,1.90
2019-06-26T04:26:22.586Z,1.80
2019-06-26T04:29:00.452Z,2.05
2019-06-26T04:31:37.678Z,1.82
2019-06-26T04:34:14.389Z,1.80
2019-06-26T04:36:51.277Z,2.17
2019-06-26T04:39:28.215Z,1.80
2019-06-26T04:42:05.153Z,1.57
2019-06-26T04:44:41.606Z,1.62
2019-06-26T04:47:18.279Z,1.67
2019-06-26T04:49:55.280Z,1.50
2019-06-26T04:52:32.161Z,1.57
2019-06-26T04:55:09.259Z,1.30
2019-06-26T04:57:46.303Z,1.40
2019-06-26T05:00:23.385Z,1.40
2019-06-26T05:03:00.194Z,1.72
2019-06-26T05:05:40.020Z,1.42
2019-06-26T05:08:15.680Z,1.47
2019-06-26T05:10:52.527Z,1.40
2019-06-26T05:13:29.667Z,1.87
2019-06-26T05:16:14.937Z,1.40
2019-06-26T05:18:45.686Z,1.70
2019-06-26T05:21:22.592Z,1.60
2019-06-26T05:23:59.678Z,1.57
2019-06-26T05:26:36.550Z,1.70
2019-06-26T05:29:13.312Z,1.80
2019-06-26T05:31:50.398Z,1.42
2019-06-26T05:34:26.914Z,1.35
2019-06-26T05:37:04.102Z,1.32
2019-06-26T05:39:41.981Z,2.30
2019-06-26T05:42:18.691Z,1.92
2019-06-26T05:44:55.821Z,2.00
2019-06-26T05:47:36.073Z,1.85
2019-06-26T05:50:13.491Z,1.77
2019-06-26T05:52:50.504Z,2.02
2019-06-26T05:55:27.489Z,1.85
2019-06-26T05:58:04.435Z,1.85
2019-06-26T06:00:41.343Z,1.77
2019-06-26T06:03:18.234Z,1.70
2019-06-26T06:05:56.089Z,1.60
2019-06-26T06:08:32.738Z,1.85
2019-06-26T06:11:09.746Z,1.90
2019-06-26T06:13:46.069Z,1.60
2019-06-26T06:16:23.386Z,1.75
2019-06-26T06:18:59.993Z,1.80
2019-06-26T06:21:36.759Z,1.95
2019-06-26T06:24:13.463Z,1.92
2019-06-26T06:26:50.126Z,1.90
2019-06-26T06:29:26.877Z,1.92
2019-06-26T06:32:03.620Z,2.58
2019-06-26T06:34:40.546Z,2.70
2019-06-26T06:37:17.512Z,2.15
2019-06-26T06:39:54.288Z,2.37
2019-06-26T06:42:31.096Z,2.37
2019-06-26T06:45:08.064Z,1.80
2019-06-26T06:47:45.724Z,1.70
2019-06-26T06:50:22.794Z,1.90
2019-06-26T06:52:59.312Z,1.90
2019-06-26T06:55:35.997Z,2.05
2019-06-26T06:58:12.779Z,1.82
2019-06-26T07:00:49.665Z,2.12
2019-06-26T07:03:26.572Z,1.80
2019-06-26T07:06:03.308Z,2.17
2019-06-26T07:08:40.991Z,1.75
2019-06-26T07:11:17.690Z,2.45
2019-06-26T07:13:54.891Z,2.05
2019-06-26T07:16:31.754Z,2.10
2019-06-26T07:19:08.427Z,2.25
2019-06-26T07:21:45.325Z,2.58
2019-06-26T07:24:22.055Z,2.33
2019-06-26T07:26:58.587Z,2.20
2019-06-26T07:29:35.327Z,1.85
2019-06-26T07:32:12.137Z,2.00
2019-06-26T07:34:48.869Z,1.77
2019-06-26T07:37:25.662Z,1.85
2019-06-26T07:40:02.953Z,2.00
2019-06-26T07:42:40.233Z,1.98
2019-06-26T07:45:17.406Z,2.02
2019-06-26T07:47:54.328Z,2.00
2019-06-26T07:50:32.535Z,1.70
2019-06-26T07:53:09.119Z,2.10
2019-06-26T07:55:45.944Z,1.77
2019-06-26T07:58:22.895Z,1.70
2019-06-26T08:00:59.995Z,1.70
2019-06-26T08:03:37.175Z,1.75
2019-06-26T08:06:13.865Z,2.10
2019-06-26T08:08:50.934Z,2.22
2019-06-26T08:11:27.748Z,1.80
2019-06-26T08:14:05.768Z,2.05
2019-06-26T08:16:42.596Z,2.15
2019-06-26T08:19:19.817Z,2.80
2019-06-26T08:21:56.882Z,2.20
2019-06-26T08:24:33.924Z,1.98
2019-06-26T08:27:12.984Z,1.80
2019-06-26T08:29:48.986Z,1.98
2019-06-26T08:32:26.152Z,2.00
2019-06-26T08:35:02.832Z,1.70
2019-06-26T08:37:39.783Z,1.52
2019-06-26T08:40:17.555Z,1.80
2019-06-26T08:42:54.424Z,1.90
2019-06-26T08:45:31.343Z,1.80
2019-06-26T08:48:22.678Z,1.75
2019-06-26T08:50:46.719Z,1.92
2019-06-26T08:53:23.543Z,2.10
2019-06-26T08:56:00.467Z,2.20
2019-06-26T08:58:37.394Z,2.08
2019-06-26T09:01:15.399Z,1.90
2019-06-26T09:03:52.276Z,1.98
2019-06-26T09:06:29.096Z,1.80
2019-06-26T09:09:06.385Z,2.08
2019-06-26T09:11:43.057Z,1.90
2019-06-26T09:14:20.045Z,1.67
2019-06-26T09:16:56.803Z,2.12
2019-06-26T09:19:33.970Z,2.02
2019-06-26T09:22:13.254Z,2.37
2019-06-26T09:24:50.109Z,2.05
2019-06-26T09:27:26.814Z,1.70
2019-06-26T09:30:03.279Z,1.65
2019-06-26T09:32:40.259Z,1.87
2019-06-26T09:35:17.406Z,2.02
2019-06-26T09:37:54.243Z,2.05
2019-06-26T09:40:32.144Z,1.90
2019-06-26T09:43:10.016Z,2.10
2019-06-26T09:45:46.666Z,2.33
2019-06-26T09:48:23.536Z,1.98
2019-06-26T09:51:00.646Z,1.90
2019-06-26T09:53:47.010Z,2.12
2019-06-26T09:56:15.882Z,1.90
2019-06-26T09:58:52.870Z,2.30
2019-06-26T10:01:29.964Z,2.00
2019-06-26T10:04:06.769Z,2.08
2019-06-26T10:06:43.640Z,1.90
2019-06-26T10:09:20.708Z,2.08
2019-06-26T10:11:57.606Z,2.10
2019-06-26T10:14:47.104Z,2.40
2019-06-26T10:17:12.910Z,2.10
2019-06-26T10:19:53.908Z,1.75
2019-06-26T10:22:28.943Z,2.00
2019-06-26T10:25:06.065Z,2.00
2019-06-26T10:27:44.129Z,2.25
2019-06-26T10:30:21.347Z,2.58
2019-06-26T10:32:58.291Z,2.08
2019-06-26T10:35:34.957Z,2.20
2019-06-26T10:38:12.167Z,2.10
2019-06-26T10:40:49.096Z,1.90
2019-06-26T10:43:25.791Z,2.00
2019-06-26T10:46:02.692Z,1.90
2019-06-26T10:48:39.645Z,2.00
2019-06-26T10:51:16.125Z,2.30
2019-06-26T10:53:53.428Z,1.90
2019-06-26T10:56:30.389Z,2.52
2019-06-26T10:59:07.455Z,2.30
2019-06-26T11:01:44.328Z,2.00
2019-06-26T11:04:21.017Z,2.30
2019-06-26T11:06:57.759Z,2.22
2019-06-26T11:09:35.899Z,2.17
2019-06-26T11:12:12.755Z,2.33
2019-06-26T11:14:50.434Z,2.72
2019-06-26T11:17:27.425Z,2.85
2019-06-26T11:20:04.100Z,3.10
2019-06-26T11:22:41.376Z,2.62
2019-06-26T11:25:19.622Z,2.62
2019-06-26T11:27:56.550Z,2.83
2019-06-26T11:30:33.167Z,2.72
2019-06-26T11:33:10.108Z,2.70
2019-06-26T11:35:47.043Z,3.00
2019-06-26T11:38:24.023Z,2.40
2019-06-26T11:41:01.956Z,2.70
2019-06-26T11:43:38.243Z,3.87
2019-06-26T11:46:14.867Z,2.60
2019-06-26T11:48:51.876Z,2.20
2019-06-26T11:51:28.646Z,2.30
2019-06-26T11:54:05.216Z,2.75
2019-06-26T11:56:42.870Z,2.42
2019-06-26T11:59:19.652Z,2.55
2019-06-26T12:01:57.467Z,2.50
2019-06-26T12:04:34.523Z,3.02
2019-06-26T12:07:11.178Z,2.95
2019-06-26T12:09:47.687Z,2.80
2019-06-26T12:12:24.781Z,2.60
2019-06-26T12:15:01.750Z,2.90
2019-06-26T12:17:40.551Z,2.65
2019-06-26T12:20:19.673Z,2.98
2019-06-26T12:22:56.110Z,3.50
2019-06-26T12:25:32.832Z,3.40
2019-06-26T12:28:09.882Z,2.62
2019-06-26T12:30:46.904Z,3.70
2019-06-26T12:33:24.989Z,2.85
2019-06-26T12:36:01.895Z,2.70
2019-06-26T12:38:38.665Z,2.42
2019-06-26T12:41:15.446Z,2.58
2019-06-26T12:43:52.329Z,2.80
2019-06-26T12:46:28.932Z,2.80
2019-06-26T12:49:06.411Z,2.58
2019-06-26T12:51:43.294Z,2.70
2019-06-26T12:54:20.161Z,2.70
2019-06-26T12:56:57.037Z,2.75
2019-06-26T12:59:33.919Z,2.72
2019-06-26T13:02:11.292Z,2.83
2019-06-26T13:04:47.801Z,2.90
2019-06-26T13:07:24.584Z,2.55
2019-06-26T13:10:01.653Z,2.37
2019-06-26T13:12:38.756Z,2.70
2019-06-26T13:15:17.379Z,2.60
2019-06-26T13:17:54.473Z,2.58
2019-06-26T13:20:31.368Z,2.80
2019-06-26T13:23:08.130Z,2.92
2019-06-26T13:25:45.197Z,2.62
2019-06-26T13:28:22.179Z,2.60
2019-06-26T13:30:59.125Z,2.37
2019-06-26T13:33:36.142Z,2.90
2019-06-26T13:36:12.982Z,2.50
2019-06-26T13:38:49.866Z,2.80
2019-06-26T13:41:26.685Z,2.42
2019-06-26T13:44:03.035Z,2.67
2019-06-26T13:46:39.263Z,2.20
2019-06-26T13:49:16.696Z,2.30
2019-06-26T13:51:53.533Z,2.17
2019-06-26T13:54:30.046Z,2.10
2019-06-26T13:57:06.594Z,2.60
2019-06-26T13:59:43.555Z,2.65
2019-06-26T14:02:20.233Z,3.30
2019-06-26T14:04:57.274Z,3.33
2019-06-26T14:07:34.312Z,3.30
2019-06-26T14:10:11.976Z,2.42
2019-06-26T14:12:48.567Z,2.80
2019-06-26T14:15:25.947Z,2.98
2019-06-26T14:18:03.462Z,2.70
2019-06-26T14:20:40.384Z,2.72
2019-06-26T14:23:17.314Z,3.00
2019-06-26T14:25:54.063Z,2.90
2019-06-26T14:28:30.433Z,3.10
2019-06-26T14:31:07.509Z,2.90
2019-06-26T14:33:44.324Z,3.27
2019-06-26T14:36:23.279Z,2.77
2019-06-26T14:38:59.413Z,2.90
2019-06-26T14:41:39.086Z,3.00
2019-06-26T14:44:14.502Z,3.30
2019-06-26T14:46:52.312Z,3.22
2019-06-26T14:49:29.358Z,4.20
2019-06-26T14:52:05.791Z,3.30
2019-06-26T14:54:42.008Z,3.92
2019-06-26T14:57:18.705Z,3.50
2019-06-26T14:59:55.128Z,3.55
2019-06-26T15:02:33.003Z,3.45
2019-06-26T15:05:09.599Z,4.00
2019-06-26T15:07:45.959Z,3.92
2019-06-26T15:10:22.770Z,3.92
2019-06-26T15:12:59.837Z,4.55
2019-06-26T15:15:36.502Z,3.90
2019-06-26T15:18:14.575Z,3.80
2019-06-26T15:20:51.621Z,4.35
2019-06-26T15:23:28.212Z,4.35
2019-06-26T15:26:05.137Z,4.60
2019-06-26T15:28:42.590Z,4.58
2019-06-26T15:31:19.308Z,4.12
2019-06-26T15:33:56.448Z,4.17
2019-06-26T15:36:32.755Z,4.58
2019-06-26T15:39:11.909Z,4.37
2019-06-26T15:41:49.002Z,4.45
2019-06-26T15:44:25.981Z,4.15
2019-06-26T15:47:03.633Z,4.35
2019-06-26T15:49:40.190Z,4.50
2019-06-26T15:52:16.717Z,4.17
2019-06-26T15:54:53.200Z,4.30
2019-06-26T15:57:29.824Z,4.12
2019-06-26T16:00:06.607Z,4.37
2019-06-26T16:02:43.304Z,4.00
2019-06-26T16:05:19.903Z,4.35
2019-06-26T16:07:56.974Z,3.58
2019-06-26T16:10:34.557Z,4.12
2019-06-26T16:13:12.477Z,3.98
2019-06-26T16:15:49.108Z,4.20
2019-06-26T16:18:31.288Z,4.17
2019-06-26T16:21:08.403Z,4.45
2019-06-26T16:23:45.235Z,4.12
2019-06-26T16:26:22.364Z,4.80
2019-06-26T16:28:59.198Z,4.17
2019-06-26T16:31:35.805Z,4.20
2019-06-26T16:34:12.394Z,4.50
2019-06-26T16:36:49.347Z,4.37
2019-06-26T16:39:26.622Z,4.37
2019-06-26T16:42:03.277Z,4.67
2019-06-26T16:44:40.169Z,4.35
2019-06-26T16:47:16.915Z,3.92
2019-06-26T16:49:53.915Z,3.70
2019-06-26T16:52:30.523Z,3.80
2019-06-26T16:55:07.516Z,3.60
2019-06-26T16:57:44.362Z,3.70
2019-06-26T17:00:21.875Z,2.92
2019-06-26T17:02:58.814Z,2.58
2019-06-26T17:05:35.612Z,3.00
2019-06-26T17:08:12.343Z,2.33
2019-06-26T17:10:51.126Z,2.17
2019-06-26T17:13:27.732Z,2.50
2019-06-26T17:16:05.291Z,1.90
2019-06-26T17:18:42.401Z,1.50
2019-06-26T17:21:19.122Z,1.57
2019-06-26T17:23:55.663Z,1.37
2019-06-26T17:26:32.187Z,1.57
2019-06-26T17:29:09.260Z,1.37
2019-06-26T17:31:45.752Z,1.20
2019-06-26T17:34:22.757Z,1.10
2019-06-26T17:36:59.569Z,1.17
2019-06-26T17:39:36.436Z,0.90
2019-06-26T17:42:13.177Z,1.10
2019-06-26T17:44:49.875Z,0.80
2019-06-26T17:47:26.763Z,0.90
2019-06-26T17:50:03.591Z,1.30
2019-06-26T17:52:40.535Z,0.90
2019-06-26T17:55:17.144Z,0.80
2019-06-26T17:57:54.074Z,0.80
2019-06-26T18:00:33.305Z,0.90
2019-06-26T18:03:10.196Z,0.75
2019-06-26T18:05:46.954Z,0.70
2019-06-26T18:08:23.733Z,1.00
2019-06-26T18:11:00.729Z,0.80
2019-06-26T18:13:37.044Z,0.60
2019-06-26T18:16:13.688Z,0.60
2019-06-26T18:18:50.336Z,0.60
2019-06-26T18:21:27.229Z,0.60
2019-06-26T18:24:04.835Z,0.70
2019-06-26T18:26:41.698Z,0.60
2019-06-26T18:29:18.261Z,0.60
2019-06-26T18:31:54.968Z,0.60
2019-06-26T18:34:31.354Z,0.60
2019-06-26T18:37:08.205Z,0.50
2019-06-26T18:39:44.688Z,0.60
2019-06-26T18:42:21.535Z,0.50
2019-06-26T18:44:58.105Z,0.57
2019-06-26T18:47:34.984Z,0.50
2019-06-26T18:50:12.251Z,0.53
2019-06-26T18:52:48.986Z,0.57
2019-06-26T18:55:25.686Z,0.70
2019-06-26T18:58:02.470Z,0.60
2019-06-26T19:00:39.344Z,0.80
2019-06-26T19:03:16.540Z,0.70
2019-06-26T19:05:53.289Z,0.70
2019-06-26T19:08:30.112Z,0.60
2019-06-26T19:11:07.152Z,0.60
2019-06-26T19:13:43.914Z,0.65
2019-06-26T19:16:20.825Z,0.53
2019-06-26T19:18:57.561Z,0.60
2019-06-26T19:21:36.970Z,0.90
2019-06-26T19:24:12.254Z,0.62
2019-06-26T19:26:48.935Z,0.90
2019-06-26T19:29:25.620Z,0.80
2019-06-26T19:32:02.876Z,0.90
2019-06-26T19:34:39.991Z,1.10
2019-06-26T19:37:16.815Z,0.93
2019-06-26T19:39:53.701Z,0.90
2019-06-26T19:42:30.950Z,0.90
2019-06-26T19:45:07.715Z,0.98
2019-06-26T19:47:44.836Z,0.80
2019-06-26T19:50:23.573Z,1.00
2019-06-26T19:53:00.244Z,0.90
2019-06-26T19:55:36.971Z,0.70
2019-06-26T19:58:13.703Z,0.80
2019-06-26T20:00:50.658Z,0.98
2019-06-26T20:03:27.508Z,1.17
2019-06-26T20:06:04.968Z,1.00
2019-06-26T20:08:53.079Z,0.82
2019-06-26T20:11:20.100Z,0.90
2019-06-26T20:13:56.981Z,0.90
2019-06-26T20:16:33.593Z,0.90
2019-06-26T20:19:10.242Z,1.00
2019-06-26T20:21:47.282Z,1.15
2019-06-26T20:24:23.980Z,1.30
2019-06-26T20:27:02.640Z,1.12
2019-06-26T20:29:39.214Z,1.10
2019-06-26T20:32:15.546Z,1.05
2019-06-26T20:34:52.053Z,1.30
2019-06-26T20:37:28.809Z,0.93
2019-06-26T20:40:05.508Z,1.32
2019-06-26T20:42:42.601Z,1.25
2019-06-26T20:45:19.722Z,1.10
2019-06-26T20:47:56.781Z,1.10
2019-06-26T20:50:33.503Z,1.05
2019-06-26T20:53:10.036Z,1.10
2019-06-26T20:55:46.808Z,1.30
2019-06-26T20:58:23.585Z,1.40
2019-06-26T21:01:00.494Z,1.50
2019-06-26T21:03:36.896Z,1.52
2019-06-26T21:06:14.738Z,1.30
2019-06-26T21:08:51.473Z,1.62
2019-06-26T21:11:28.458Z,1.70
2019-06-26T21:14:05.646Z,1.30
2019-06-26T21:16:42.332Z,1.35
2019-06-26T21:19:19.259Z,1.85
2019-06-26T21:21:55.785Z,1.40
2019-06-26T21:24:32.514Z,1.20
2019-06-26T21:27:09.327Z,1.62
2019-06-26T21:29:46.131Z,2.12
2019-06-26T21:32:22.981Z,2.37
2019-06-26T21:35:00.023Z,1.92
2019-06-26T21:37:36.929Z,1.80
2019-06-26T21:40:14.106Z,1.55
2019-06-26T21:42:50.455Z,1.55
2019-06-26T21:45:27.144Z,1.60
2019-06-26T21:48:03.995Z,1.98
2019-06-26T21:50:41.149Z,2.10
2019-06-26T21:53:17.876Z,1.82
2019-06-26T21:55:55.874Z,1.92
2019-06-26T21:58:34.011Z,1.70
2019-06-26T22:01:12.326Z,1.70
2019-06-26T22:03:50.302Z,1.57
2019-06-26T22:06:29.387Z,1.87
2019-06-26T22:09:08.578Z,1.80
2019-06-26T22:11:46.681Z,2.00
2019-06-26T22:14:23.521Z,1.90
2019-06-26T22:17:00.522Z,2.25
2019-06-26T22:19:37.548Z,1.90
2019-06-26T22:22:14.464Z,2.02
2019-06-26T22:24:51.403Z,1.90
2019-06-26T22:27:28.135Z,2.35
2019-06-26T22:30:06.046Z,2.02
2019-06-26T22:32:42.847Z,2.05
2019-06-26T22:35:20.709Z,2.35
2019-06-26T22:37:57.326Z,1.98
2019-06-26T22:40:33.919Z,1.85
2019-06-26T22:43:10.339Z,2.15
2019-06-26T22:45:47.519Z,2.08
2019-06-26T22:48:24.074Z,2.02
2019-06-26T22:51:01.249Z,2.15
2019-06-26T22:53:38.276Z,2.10
2019-06-26T22:56:14.899Z,2.22
2019-06-26T22:58:51.811Z,2.15
2019-06-26T23:01:28.833Z,2.12
2019-06-26T23:04:11.620Z,2.10
2019-06-26T23:06:48.437Z,1.92
2019-06-26T23:09:25.274Z,1.75
2019-06-26T23:12:02.381Z,2.05
2019-06-26T23:14:39.699Z,2.00
2019-06-26T23:17:16.511Z,2.45
2019-06-26T23:19:53.443Z,2.10
2019-06-26T23:22:30.385Z,2.50
2019-06-26T23:25:07.175Z,4.55
2019-06-26T23:27:44.626Z,6.45
2019-06-26T23:30:24.535Z,5.20
2019-06-26T23:33:01.570Z,4.12
2019-06-26T23:35:38.682Z,4.80
2019-06-26T23:38:15.784Z,4.37
2019-06-26T23:40:52.450Z,4.97
2019-06-26T23:43:29.209Z,4.12
2019-06-26T23:46:06.975Z,4.50
2019-06-26T23:48:45.710Z,4.78
2019-06-26T23:51:21.562Z,3.62
2019-06-26T23:54:01.529Z,4.70
2019-06-26T23:56:40.733Z,4.10
2019-06-26T23:59:17.001Z,2.85
